createdAt,value
2022-11-14T00:01:13.599Z,47.20
2022-11-14T00:03:40.852Z,47.70
2022-11-14T00:06:08.764Z,47.20
2022-11-14T00:08:36.593Z,47.20
2022-11-14T00:11:04.179Z,47.20
2022-11-14T00:13:31.212Z,47.20
2022-11-14T00:15:58.302Z,47.70
2022-11-14T00:18:25.696Z,47.20
2022-11-14T00:20:53.689Z,47.20
2022-11-14T00:23:22.033Z,47.20
2022-11-14T00:25:49.737Z,47.20
2022-11-14T00:28:16.999Z,47.20
2022-11-14T00:30:48.971Z,47.20
2022-11-14T00:33:20.311Z,47.20
2022-11-14T00:35:52.772Z,47.20
2022-11-14T00:38:19.812Z,47.20
2022-11-14T00:40:46.856Z,47.20
2022-11-14T00:43:13.981Z,47.20
2022-11-14T00:45:44.792Z,47.20
2022-11-14T00:48:11.856Z,47.20
2022-11-14T00:50:38.889Z,47.30
2022-11-14T00:53:06.132Z,47.30
2022-11-14T00:55:33.160Z,47.30
2022-11-14T00:58:00.198Z,47.30
2022-11-14T01:00:27.452Z,47.20
2022-11-14T01:02:57.025Z,47.30
2022-11-14T01:05:25.442Z,47.30
2022-11-14T01:07:52.505Z,47.30
2022-11-14T01:10:20.064Z,47.30
2022-11-14T01:12:47.447Z,47.30
2022-11-14T01:15:14.571Z,47.40
2022-11-14T01:17:41.648Z,47.40
2022-11-14T01:20:09.077Z,47.40
2022-11-14T01:22:36.089Z,47.40
2022-11-14T01:25:03.161Z,47.40
2022-11-14T01:27:33.444Z,47.50
2022-11-14T01:30:00.507Z,47.40
2022-11-14T01:32:27.772Z,47.40
2022-11-14T01:34:55.041Z,47.30
2022-11-14T01:37:22.200Z,47.30
2022-11-14T01:39:49.404Z,47.30
2022-11-14T01:42:17.677Z,47.30
2022-11-14T01:44:49.116Z,47.80
2022-11-14T01:47:21.487Z,47.30
2022-11-14T01:49:52.727Z,47.30
2022-11-14T01:52:32.101Z,47.30
2022-11-14T01:55:01.883Z,47.30
2022-11-14T01:57:36.451Z,47.30
2022-11-14T02:00:08.726Z,47.30
2022-11-14T02:02:36.265Z,47.30
2022-11-14T02:05:07.759Z,47.30
2022-11-14T02:07:38.089Z,47.30
2022-11-14T02:10:10.079Z,47.30
2022-11-14T02:12:38.136Z,47.20
2022-11-14T02:15:05.516Z,47.30
2022-11-14T02:17:33.159Z,47.30
2022-11-14T02:20:20.749Z,47.30
2022-11-14T02:22:47.841Z,47.30
2022-11-14T02:25:18.635Z,47.30
2022-11-14T02:27:45.747Z,47.30
2022-11-14T02:30:17.509Z,47.30
2022-11-14T02:33:09.441Z,47.30
2022-11-14T02:35:31.624Z,47.20
2022-11-14T02:37:58.646Z,47.30
2022-11-14T02:40:25.667Z,47.30
2022-11-14T02:42:52.664Z,47.30
2022-11-14T02:45:21.017Z,47.30
2022-11-14T02:47:48.080Z,47.30
2022-11-14T02:50:15.442Z,47.30
2022-11-14T02:52:42.480Z,47.30
2022-11-14T02:55:10.392Z,47.30
2022-11-14T02:57:37.614Z,47.30
2022-11-14T03:00:08.848Z,47.30
2022-11-14T03:02:40.500Z,47.30
2022-11-14T03:05:07.959Z,47.30
2022-11-14T03:07:35.060Z,47.30
2022-11-14T03:10:02.398Z,47.30
2022-11-14T03:12:29.580Z,47.30
2022-11-14T03:14:56.596Z,47.30
2022-11-14T03:17:24.833Z,47.30
2022-11-14T03:19:51.855Z,47.30
2022-11-14T03:22:18.847Z,47.30
2022-11-14T03:24:45.851Z,47.30
2022-11-14T03:27:12.893Z,47.40
2022-11-14T03:29:39.924Z,47.40
2022-11-14T03:32:06.959Z,47.40
2022-11-14T03:34:34.028Z,47.50
2022-11-14T03:37:01.076Z,47.50
2022-11-14T03:39:28.440Z,47.50
2022-11-14T03:41:55.468Z,47.50
2022-11-14T03:44:22.668Z,47.50
2022-11-14T03:46:49.693Z,47.60
2022-11-14T03:49:16.700Z,47.50
2022-11-14T03:51:43.700Z,47.40
2022-11-14T03:54:10.689Z,47.40
2022-11-14T03:56:37.720Z,47.40
2022-11-14T03:59:04.784Z,47.30
2022-11-14T04:01:31.801Z,47.30
2022-11-14T04:03:58.994Z,47.30
2022-11-14T04:06:25.976Z,47.30
2022-11-14T04:08:53.090Z,47.30
2022-11-14T04:11:20.548Z,47.30
2022-11-14T04:13:47.528Z,47.30
2022-11-14T04:16:14.550Z,47.30
2022-11-14T04:18:41.574Z,47.30
2022-11-14T04:21:08.628Z,47.30
2022-11-14T04:23:35.660Z,47.30
2022-11-14T04:26:02.706Z,47.30
2022-11-14T04:28:30.074Z,47.30
2022-11-14T04:30:57.331Z,47.30
2022-11-14T04:33:24.375Z,47.30
2022-11-14T04:35:51.438Z,47.30
2022-11-14T04:38:18.440Z,47.30
2022-11-14T04:40:52.316Z,47.30
2022-11-14T04:43:21.918Z,47.30
2022-11-14T04:45:48.931Z,47.30
2022-11-14T04:48:16.206Z,47.30
2022-11-14T04:50:43.257Z,47.20
2022-11-14T04:53:10.256Z,47.30
2022-11-14T04:55:37.258Z,47.30
2022-11-14T04:58:04.293Z,47.20
2022-11-14T05:00:31.370Z,47.30
2022-11-14T05:03:01.458Z,47.30
2022-11-14T05:05:28.479Z,47.30
2022-11-14T05:07:55.621Z,47.30
2022-11-14T05:10:22.740Z,47.20
2022-11-14T05:12:53.014Z,47.30
2022-11-14T05:15:20.059Z,47.20
2022-11-14T05:17:47.364Z,47.20
2022-11-14T05:20:14.427Z,47.20
2022-11-14T05:22:41.433Z,47.20
2022-11-14T05:25:08.864Z,47.20
2022-11-14T05:27:35.902Z,47.20
2022-11-14T05:30:03.013Z,47.30
2022-11-14T05:32:30.029Z,47.30
2022-11-14T05:34:57.122Z,47.30
2022-11-14T05:37:24.219Z,47.20
2022-11-14T05:39:51.288Z,47.20
2022-11-14T05:42:18.274Z,47.00
2022-11-14T05:44:45.260Z,46.90
2022-11-14T05:47:12.343Z,46.90
2022-11-14T05:49:39.434Z,46.80
2022-11-14T05:52:06.467Z,46.70
2022-11-14T05:54:33.466Z,46.80
2022-11-14T05:57:00.552Z,46.70
2022-11-14T05:59:27.771Z,46.80
2022-11-14T06:01:55.151Z,46.70
2022-11-14T06:04:22.667Z,46.70
2022-11-14T06:06:50.025Z,46.70
2022-11-14T06:09:17.934Z,46.70
2022-11-14T06:11:44.946Z,46.70
2022-11-14T06:14:11.990Z,46.90
2022-11-14T06:16:39.069Z,47.20
2022-11-14T06:19:06.219Z,47.20
2022-11-14T06:21:33.295Z,47.30
2022-11-14T06:24:00.330Z,47.30
2022-11-14T06:26:31.959Z,47.80
2022-11-14T06:29:00.334Z,47.30
2022-11-14T06:35:09.718Z,47.20
2022-11-14T06:37:40.294Z,47.00
2022-11-14T06:40:34.583Z,47.00
2022-11-14T06:43:01.578Z,47.00
2022-11-14T06:45:59.105Z,47.10
2022-11-14T06:48:26.111Z,47.30
2022-11-14T06:50:54.349Z,47.30
2022-11-14T06:53:21.880Z,47.10
2022-11-14T06:56:01.136Z,46.80
2022-11-14T06:58:30.765Z,46.70
2022-11-14T07:01:02.762Z,46.50
2022-11-14T07:03:29.878Z,46.50
2022-11-14T07:06:01.370Z,46.40
2022-11-14T07:08:28.669Z,46.30
2022-11-14T07:11:02.834Z,46.40
2022-11-14T07:13:31.393Z,46.60
2022-11-14T07:15:58.518Z,46.60
2022-11-14T07:18:26.020Z,46.60
2022-11-14T07:21:01.793Z,46.80
2022-11-14T07:23:29.903Z,46.90
2022-11-14T07:26:08.411Z,46.90
2022-11-14T07:28:36.747Z,47.10
2022-11-14T07:31:09.235Z,47.20
2022-11-14T07:33:36.523Z,47.20
2022-11-14T07:36:03.745Z,47.10
2022-11-14T07:38:32.532Z,47.10
2022-11-14T07:41:06.640Z,47.20
2022-11-14T07:43:33.723Z,47.30
2022-11-14T07:46:02.898Z,47.30
2022-11-14T07:48:30.919Z,47.30
2022-11-14T07:51:02.156Z,47.30
2022-11-14T07:53:29.782Z,47.20
2022-11-14T07:55:57.554Z,47.10
2022-11-14T07:58:24.640Z,47.10
2022-11-14T08:00:51.716Z,47.10
2022-11-14T08:03:19.436Z,47.00
2022-11-14T08:05:46.469Z,47.10
2022-11-14T08:08:13.506Z,47.20
2022-11-14T08:10:40.572Z,47.30
2022-11-14T08:13:30.897Z,47.30
2022-11-14T08:15:56.034Z,47.20
2022-11-14T08:18:23.424Z,47.20
2022-11-14T08:20:50.510Z,47.20
2022-11-14T08:23:17.497Z,47.30
2022-11-14T08:25:45.188Z,47.10
2022-11-14T08:28:14.957Z,46.90
2022-11-14T08:30:42.292Z,46.60
2022-11-14T08:33:09.783Z,46.50
2022-11-14T08:35:36.995Z,46.30
2022-11-14T08:38:04.327Z,46.20
2022-11-14T08:40:32.006Z,46.10
2022-11-14T08:43:01.364Z,46.00
2022-11-14T08:45:29.744Z,46.00
2022-11-14T08:47:57.372Z,45.90
2022-11-14T08:50:24.639Z,45.80
2022-11-14T08:52:52.444Z,45.80
2022-11-14T08:55:20.942Z,45.80
2022-11-14T08:57:49.951Z,45.70
2022-11-14T09:00:17.982Z,45.60
2022-11-14T09:02:45.135Z,45.60
2022-11-14T09:05:12.313Z,45.60
2022-11-14T09:07:39.554Z,45.60
2022-11-14T09:10:07.619Z,45.50
2022-11-14T09:12:35.105Z,45.50
2022-11-14T09:15:03.363Z,45.40
2022-11-14T09:17:30.355Z,45.40
2022-11-14T09:19:57.425Z,45.40
2022-11-14T09:22:24.483Z,45.40
2022-11-14T09:24:52.866Z,45.40
2022-11-14T09:27:19.920Z,45.40
2022-11-14T09:29:47.039Z,45.30
2022-11-14T09:32:14.083Z,45.30
2022-11-14T09:34:43.657Z,45.30
2022-11-14T09:37:11.728Z,45.30
2022-11-14T09:39:40.860Z,45.30
2022-11-14T09:42:41.304Z,45.30
2022-11-14T09:45:12.967Z,45.30
2022-11-14T09:47:46.228Z,45.20
2022-11-14T09:50:26.831Z,45.20
2022-11-14T09:52:59.287Z,45.20
2022-11-14T09:55:36.513Z,45.10
2022-11-14T09:58:06.566Z,45.10
2022-11-14T10:00:57.109Z,45.10
2022-11-14T10:03:33.804Z,45.20
2022-11-14T10:06:27.176Z,45.30
2022-11-14T10:09:34.919Z,45.20
2022-11-14T10:12:21.205Z,45.20
2022-11-14T10:15:06.009Z,45.20
2022-11-14T10:18:12.862Z,45.20
2022-11-14T10:20:53.979Z,45.00
2022-11-14T10:23:52.357Z,45.00
2022-11-14T10:26:30.325Z,45.00
2022-11-14T10:29:33.112Z,44.90
2022-11-14T10:32:16.924Z,44.90
2022-11-14T10:34:56.493Z,44.80
2022-11-14T10:37:31.838Z,44.80
2022-11-14T10:40:23.546Z,45.10
2022-11-14T10:43:02.603Z,45.50
2022-11-14T10:45:34.894Z,45.90
2022-11-14T10:48:10.766Z,46.10
2022-11-14T10:50:56.121Z,46.30
2022-11-14T10:53:45.118Z,46.40
2022-11-14T10:56:13.160Z,46.40
2022-11-14T10:58:48.349Z,46.50
2022-11-14T11:01:42.590Z,46.50
2022-11-14T11:04:32.614Z,46.50
2022-11-14T11:07:44.175Z,46.30
2022-11-14T11:10:43.597Z,46.30
2022-11-14T11:13:28.407Z,46.30
2022-11-14T11:15:59.570Z,46.20
2022-11-14T11:18:33.869Z,45.90
2022-11-14T11:21:10.408Z,45.70
2022-11-14T11:23:49.882Z,45.50
2022-11-14T11:26:23.153Z,45.30
2022-11-14T11:29:18.405Z,45.20
2022-11-14T11:31:52.238Z,45.10
2022-11-14T11:34:31.604Z,45.00
2022-11-14T11:37:19.340Z,45.00
2022-11-14T11:39:51.750Z,44.90
2022-11-14T11:42:25.879Z,44.90
2022-11-14T11:44:59.994Z,45.00
2022-11-14T11:47:31.166Z,45.20
2022-11-14T11:49:59.647Z,45.40
2022-11-14T11:52:52.144Z,45.50
2022-11-14T11:55:27.474Z,45.50
2022-11-14T11:58:35.241Z,45.60
2022-11-14T12:01:02.338Z,45.60
2022-11-14T12:03:29.547Z,45.70
2022-11-14T12:06:11.701Z,45.60
2022-11-14T12:09:12.003Z,45.70
2022-11-14T12:11:43.441Z,45.70
2022-11-14T12:14:39.589Z,45.60
2022-11-14T12:17:46.432Z,45.50
2022-11-14T12:20:40.480Z,45.50
2022-11-14T12:23:47.720Z,45.50
2022-11-14T12:26:45.284Z,45.50
2022-11-14T12:29:50.480Z,45.50
2022-11-14T12:32:32.446Z,45.60
2022-11-14T12:35:03.572Z,45.60
2022-11-14T12:37:36.431Z,45.70
2022-11-14T12:40:18.897Z,45.60
2022-11-14T12:42:48.791Z,45.80
2022-11-14T12:45:56.128Z,46.10
2022-11-14T12:48:30.792Z,46.40
2022-11-14T12:50:59.533Z,46.50
2022-11-14T12:53:42.275Z,46.40
2022-11-14T12:56:49.825Z,46.50
2022-11-14T12:59:45.525Z,46.50
2022-11-14T13:02:25.695Z,46.90
2022-11-14T13:05:24.195Z,46.70
2022-11-14T13:08:30.977Z,46.80
2022-11-14T13:10:58.109Z,46.70
2022-11-14T13:13:45.177Z,46.50
2022-11-14T13:16:45.904Z,46.50
2022-11-14T13:19:40.752Z,46.50
2022-11-14T13:22:36.170Z,46.60
2022-11-14T13:25:23.569Z,46.60
2022-11-14T13:28:10.019Z,47.10
2022-11-14T13:31:17.841Z,46.50
2022-11-14T13:33:50.858Z,46.60
2022-11-14T13:36:40.529Z,46.50
2022-11-14T13:39:38.446Z,46.40
2022-11-14T13:42:45.234Z,46.40
2022-11-14T13:45:41.629Z,46.20
2022-11-14T13:48:29.417Z,46.10
2022-11-14T13:51:15.534Z,46.20
2022-11-14T13:53:48.930Z,46.10
2022-11-14T13:56:49.036Z,46.10
2022-11-14T13:59:39.774Z,46.10
2022-11-14T14:02:36.748Z,46.00
2022-11-14T14:05:31.198Z,46.00
2022-11-14T14:08:24.362Z,46.00
2022-11-14T14:11:16.198Z,46.20
2022-11-14T14:14:12.306Z,46.10
2022-11-14T14:17:18.562Z,46.00
2022-11-14T14:20:05.628Z,46.00
2022-11-14T14:22:45.325Z,46.10
2022-11-14T14:25:41.282Z,46.00
2022-11-14T14:28:33.979Z,46.00
2022-11-14T14:31:14.794Z,46.10
2022-11-14T14:33:47.324Z,46.00
2022-11-14T14:36:26.841Z,46.00
2022-11-14T14:39:21.067Z,46.00
2022-11-14T14:41:49.986Z,46.00
2022-11-14T14:44:40.479Z,46.00
2022-11-14T14:47:27.504Z,45.90
2022-11-14T14:49:55.711Z,45.90
2022-11-14T14:52:30.986Z,45.80
2022-11-14T14:54:59.061Z,45.90
2022-11-14T14:57:26.664Z,45.80
2022-11-14T15:00:07.320Z,45.90
2022-11-14T15:02:34.869Z,46.00
2022-11-14T15:05:03.018Z,45.90
2022-11-14T15:07:31.233Z,46.00
2022-11-14T15:10:02.919Z,46.20
2022-11-14T15:12:31.763Z,46.20
2022-11-14T15:15:00.564Z,46.30
2022-11-14T15:17:31.592Z,46.50
2022-11-14T15:20:01.638Z,46.60
2022-11-14T15:22:29.393Z,46.60
2022-11-14T15:25:20.490Z,46.70
2022-11-14T15:27:53.783Z,46.90
2022-11-14T15:30:37.069Z,47.10
2022-11-14T15:33:24.931Z,47.10
2022-11-14T15:36:14.144Z,47.10
2022-11-14T15:38:59.240Z,47.10
2022-11-14T15:41:30.452Z,46.90
2022-11-14T15:44:05.740Z,46.90
2022-11-14T15:46:41.887Z,46.90
2022-11-14T15:49:21.382Z,46.90
2022-11-14T15:51:52.806Z,46.90
2022-11-14T15:54:30.894Z,47.00
2022-11-14T15:57:06.560Z,47.00
2022-11-14T15:59:35.165Z,47.60
2022-11-14T16:02:21.208Z,47.10
2022-11-14T16:04:50.256Z,47.20
2022-11-14T16:07:18.151Z,47.10
2022-11-14T16:09:45.789Z,47.20
2022-11-14T16:12:12.840Z,47.30
2022-11-14T16:14:39.986Z,47.40
2022-11-14T16:17:12.309Z,47.60
2022-11-14T16:19:39.306Z,47.60
2022-11-14T16:22:06.609Z,47.70
2022-11-14T16:24:34.387Z,47.90
2022-11-14T16:27:01.993Z,47.90
2022-11-14T16:29:29.003Z,48.10
2022-11-14T16:31:56.583Z,48.30
2022-11-14T16:34:25.704Z,48.40
2022-11-14T16:37:00.890Z,48.60
2022-11-14T16:39:28.445Z,48.70
2022-11-14T16:42:01.718Z,48.80
2022-11-14T16:44:28.916Z,48.90
2022-11-14T16:46:55.991Z,49.00
2022-11-14T16:49:23.228Z,49.00
2022-11-14T16:51:51.570Z,49.10
2022-11-14T16:54:20.453Z,49.10
2022-11-14T16:56:48.364Z,49.10
2022-11-14T16:59:15.619Z,49.10
2022-11-14T17:01:42.786Z,49.00
2022-11-14T17:04:10.132Z,49.10
2022-11-14T17:06:37.188Z,49.10
2022-11-14T17:09:04.266Z,49.40
2022-11-14T17:11:31.776Z,49.70
2022-11-14T17:13:58.864Z,50.30
2022-11-14T17:16:25.917Z,51.00
2022-11-14T17:18:56.325Z,51.70
2022-11-14T17:21:23.888Z,52.20
2022-11-14T17:24:00.445Z,52.40
2022-11-14T17:26:28.458Z,52.50
2022-11-14T17:28:55.620Z,52.60
2022-11-14T17:31:22.861Z,52.70
2022-11-14T17:33:54.615Z,52.70
2022-11-14T17:36:22.588Z,52.90
2022-11-14T17:38:49.645Z,53.00
2022-11-14T17:41:16.921Z,53.20
2022-11-14T17:43:44.833Z,53.20
2022-11-14T17:46:15.847Z,53.00
2022-11-14T17:48:43.897Z,52.90
2022-11-14T17:51:13.828Z,52.70
2022-11-14T17:53:41.598Z,52.40
2022-11-14T17:56:13.645Z,52.30
2022-11-14T17:58:40.768Z,52.10
2022-11-14T18:01:12.381Z,52.00
2022-11-14T18:03:39.575Z,51.90
2022-11-14T18:06:15.568Z,51.70
2022-11-14T18:08:42.933Z,51.70
2022-11-14T18:11:12.305Z,51.50
2022-11-14T18:13:40.615Z,51.50
2022-11-14T18:16:11.637Z,52.00
2022-11-14T18:18:39.108Z,51.50
2022-11-14T18:21:12.395Z,51.40
2022-11-14T18:23:39.404Z,51.40
2022-11-14T18:26:12.987Z,51.40
2022-11-14T18:28:40.830Z,51.40
2022-11-14T18:31:10.946Z,51.40
2022-11-14T18:33:39.349Z,51.30
2022-11-14T18:36:11.849Z,51.30
2022-11-14T18:38:39.377Z,51.30
2022-11-14T18:41:13.616Z,51.30
2022-11-14T18:43:41.131Z,51.30
2022-11-14T18:46:10.987Z,51.30
2022-11-14T18:48:40.029Z,51.20
2022-11-14T18:51:12.667Z,51.20
2022-11-14T18:53:39.852Z,51.20
2022-11-14T18:56:09.369Z,51.20
2022-11-14T18:58:39.785Z,51.20
2022-11-14T19:01:21.959Z,51.20
2022-11-14T19:03:48.966Z,51.10
2022-11-14T19:06:16.496Z,51.10
2022-11-14T19:08:43.665Z,51.10
2022-11-14T19:11:32.779Z,51.10
2022-11-14T19:14:05.169Z,51.10
2022-11-14T19:16:36.428Z,51.10
2022-11-14T19:19:04.445Z,51.00
2022-11-14T19:21:31.768Z,50.90
2022-11-14T19:23:59.729Z,50.90
2022-11-14T19:26:27.913Z,50.90
2022-11-14T19:28:55.366Z,50.80
2022-11-14T19:31:23.389Z,50.80
2022-11-14T19:33:50.514Z,50.70
2022-11-14T19:36:44.903Z,51.30
2022-11-14T19:39:07.129Z,50.70
2022-11-14T19:41:34.222Z,50.70
2022-11-14T19:44:02.637Z,50.60
2022-11-14T19:46:29.943Z,50.60
2022-11-14T19:48:58.598Z,50.60
2022-11-14T19:51:26.380Z,50.60
2022-11-14T19:53:53.981Z,50.60
2022-11-14T19:56:22.215Z,50.50
2022-11-14T19:58:51.862Z,50.50
2022-11-14T20:01:21.249Z,50.50
2022-11-14T20:03:59.548Z,50.40
2022-11-14T20:06:36.293Z,50.40
2022-11-14T20:09:07.081Z,50.40
2022-11-14T20:11:34.478Z,50.40
2022-11-14T20:14:03.218Z,50.40
2022-11-14T20:16:32.768Z,50.30
2022-11-14T20:19:01.781Z,50.30
2022-11-14T20:21:31.388Z,50.30
2022-11-14T20:23:59.093Z,50.30
2022-11-14T20:26:26.505Z,50.30
2022-11-14T20:28:54.886Z,50.20
2022-11-14T20:31:25.042Z,50.20
2022-11-14T20:33:53.905Z,50.20
2022-11-14T20:36:24.136Z,50.20
2022-11-14T20:38:52.563Z,50.20
2022-11-14T20:41:20.622Z,50.20
2022-11-14T20:43:48.195Z,50.10
2022-11-14T20:46:21.694Z,50.10
2022-11-14T20:48:49.394Z,50.10
2022-11-14T20:51:19.662Z,50.10
2022-11-14T20:53:47.714Z,50.10
2022-11-14T20:56:15.890Z,50.10
2022-11-14T20:58:44.464Z,50.00
2022-11-14T21:01:12.484Z,50.10
2022-11-14T21:03:40.040Z,50.10
2022-11-14T21:06:08.288Z,50.20
2022-11-14T21:08:36.328Z,50.10
2022-11-14T21:11:06.964Z,50.10
2022-11-14T21:13:58.964Z,50.10
2022-11-14T21:16:35.992Z,50.20
2022-11-14T21:19:04.890Z,50.10
2022-11-14T21:21:35.433Z,50.10
2022-11-14T21:24:05.250Z,50.10
2022-11-14T21:26:34.490Z,50.10
2022-11-14T21:29:05.269Z,50.10
2022-11-14T21:31:35.372Z,50.00
2022-11-14T21:34:05.466Z,50.10
2022-11-14T21:36:47.899Z,50.00
2022-11-14T21:39:16.824Z,49.90
2022-11-14T21:41:46.120Z,49.90
2022-11-14T21:44:16.692Z,49.90
2022-11-14T21:46:46.347Z,49.90
2022-11-14T21:49:13.429Z,49.90
2022-11-14T21:51:40.717Z,49.80
2022-11-14T21:54:08.926Z,49.80
2022-11-14T21:56:37.317Z,49.90
2022-11-14T21:59:16.059Z,49.80
2022-11-14T22:02:06.364Z,49.80
2022-11-14T22:04:34.093Z,49.80
2022-11-14T22:07:06.606Z,49.80
2022-11-14T22:09:34.441Z,49.80
2022-11-14T22:12:02.006Z,49.70
2022-11-14T22:14:29.656Z,49.80
2022-11-14T22:16:58.110Z,49.70
2022-11-14T22:19:25.268Z,49.70
2022-11-14T22:21:53.046Z,49.70
2022-11-14T22:24:20.226Z,49.70
2022-11-14T22:26:47.229Z,49.70
2022-11-14T22:29:14.294Z,49.70
2022-11-14T22:31:41.462Z,49.70
2022-11-14T22:34:08.529Z,49.60
2022-11-14T22:36:36.067Z,49.60
2022-11-14T22:39:03.387Z,49.60
2022-11-14T22:41:33.405Z,49.60
2022-11-14T22:44:01.597Z,49.60
2022-11-14T22:46:29.226Z,49.60
2022-11-14T22:48:56.327Z,49.60
2022-11-14T22:51:25.625Z,49.60
2022-11-14T22:53:54.374Z,49.60
2022-11-14T22:56:24.509Z,49.60
2022-11-14T22:58:51.858Z,49.60
2022-11-14T23:01:24.782Z,49.50
2022-11-14T23:03:57.364Z,49.50
2022-11-14T23:06:24.999Z,49.50
2022-11-14T23:08:52.627Z,49.50
2022-11-14T23:11:23.074Z,49.50
2022-11-14T23:13:52.242Z,49.60
2022-11-14T23:16:21.894Z,49.50
2022-11-14T23:18:50.059Z,49.50
2022-11-14T23:21:20.510Z,49.60
2022-11-14T23:23:52.195Z,49.60
2022-11-14T23:26:20.084Z,49.60
2022-11-14T23:28:47.101Z,49.60
2022-11-14T23:31:19.412Z,49.60
2022-11-14T23:33:47.794Z,49.60
2022-11-14T23:36:15.187Z,49.60
2022-11-14T23:38:42.386Z,49.60
2022-11-14T23:41:18.577Z,49.60
2022-11-14T23:43:46.886Z,49.90
2022-11-14T23:46:15.000Z,49.60
2022-11-14T23:48:42.255Z,49.50
2022-11-14T23:51:10.096Z,49.50
2022-11-14T23:53:37.408Z,49.50
2022-11-14T23:56:04.688Z,49.50
2022-11-14T23:58:31.830Z,49.40
